createdAt,value
2023-05-21T00:00:25.345Z,18.80
2023-05-21T00:02:52.120Z,18.80
2023-05-21T00:05:19.028Z,18.90
2023-05-21T00:07:47.031Z,18.80
2023-05-21T00:10:13.738Z,18.70
2023-05-21T00:12:41.881Z,18.60
2023-05-21T00:15:09.351Z,18.50
2023-05-21T00:17:36.971Z,18.50
2023-05-21T00:20:07.301Z,18.50
2023-05-21T00:22:34.099Z,18.50
2023-05-21T00:25:00.811Z,18.50
2023-05-21T00:27:27.506Z,18.50
2023-05-21T00:29:54.198Z,18.50
2023-05-21T00:32:21.240Z,18.50
2023-05-21T00:34:48.447Z,18.40
2023-05-21T00:37:15.316Z,18.50
2023-05-21T00:39:42.177Z,18.40
2023-05-21T00:42:09.096Z,18.40
2023-05-21T00:44:35.774Z,18.30
2023-05-21T00:47:03.589Z,18.40
2023-05-21T00:49:31.470Z,18.30
2023-05-21T00:52:01.410Z,18.20
2023-05-21T00:54:28.791Z,18.20
2023-05-21T00:56:56.222Z,18.20
2023-05-21T00:59:24.262Z,18.20
2023-05-21T01:01:56.031Z,18.10
2023-05-21T01:04:24.029Z,18.00
2023-05-21T01:06:53.317Z,18.00
2023-05-21T01:09:20.402Z,18.00
2023-05-21T01:11:49.518Z,17.90
2023-05-21T01:14:17.661Z,17.90
2023-05-21T01:16:48.101Z,17.90
2023-05-21T01:19:18.117Z,18.00
2023-05-21T01:21:47.219Z,17.90
2023-05-21T01:24:15.358Z,17.90
2023-05-21T01:26:44.120Z,17.80
2023-05-21T01:29:14.119Z,17.80
2023-05-21T01:32:12.005Z,17.70
2023-05-21T01:35:03.801Z,17.60
2023-05-21T01:37:41.159Z,17.60
2023-05-21T01:40:46.584Z,17.50
2023-05-21T01:43:14.872Z,17.40
2023-05-21T01:45:43.983Z,17.50
2023-05-21T01:48:12.182Z,17.40
2023-05-21T01:50:41.508Z,17.50
2023-05-21T01:53:08.272Z,17.60
2023-05-21T01:55:35.655Z,17.50
2023-05-21T01:58:02.776Z,17.50
2023-05-21T02:00:30.750Z,17.50
2023-05-21T02:02:58.633Z,17.50
2023-05-21T02:05:25.766Z,17.30
2023-05-21T02:07:52.792Z,17.30
2023-05-21T02:10:19.717Z,17.20
2023-05-21T02:12:46.732Z,17.30
2023-05-21T02:15:18.029Z,17.30
2023-05-21T02:17:46.257Z,17.10
2023-05-21T02:20:14.440Z,17.10
2023-05-21T02:22:46.142Z,17.10
2023-05-21T02:25:14.846Z,17.20
2023-05-21T02:27:42.489Z,17.30
2023-05-21T02:30:13.900Z,17.40
2023-05-21T02:32:44.933Z,17.30
2023-05-21T02:35:13.410Z,17.30
2023-05-21T02:37:40.822Z,17.20
2023-05-21T02:40:09.595Z,17.30
2023-05-21T02:42:39.228Z,17.10
2023-05-21T02:45:12.275Z,17.00
2023-05-21T02:47:39.221Z,17.10
2023-05-21T02:50:09.911Z,17.10
2023-05-21T02:52:36.648Z,17.10
2023-05-21T02:55:03.475Z,17.20
2023-05-21T02:57:30.190Z,17.00
2023-05-21T02:59:57.009Z,16.90
2023-05-21T03:02:23.869Z,16.90
2023-05-21T03:04:51.540Z,16.80
2023-05-21T03:07:19.754Z,16.70
2023-05-21T03:09:46.735Z,16.50
2023-05-21T03:12:13.843Z,16.50
2023-05-21T03:14:42.657Z,16.50
2023-05-21T03:17:13.792Z,16.40
2023-05-21T03:19:41.774Z,16.50
2023-05-21T03:22:08.885Z,16.50
2023-05-21T03:24:36.657Z,16.60
2023-05-21T03:27:06.030Z,16.60
2023-05-21T03:29:33.816Z,16.70
2023-05-21T03:32:01.170Z,16.70
2023-05-21T03:34:27.916Z,16.60
2023-05-21T03:36:54.614Z,16.60
2023-05-21T03:39:21.361Z,16.50
2023-05-21T03:41:48.028Z,16.50
2023-05-21T03:44:14.733Z,16.40
2023-05-21T03:46:42.456Z,16.30
2023-05-21T03:49:09.292Z,16.40
2023-05-21T03:51:36.030Z,16.30
2023-05-21T03:54:02.748Z,16.20
2023-05-21T03:56:29.525Z,16.10
2023-05-21T03:58:56.287Z,16.10
2023-05-21T04:01:22.953Z,16.10
2023-05-21T04:03:49.905Z,16.10
2023-05-21T04:06:16.996Z,16.10
2023-05-21T04:08:44.509Z,16.10
2023-05-21T04:11:11.269Z,16.00
2023-05-21T04:13:38.772Z,16.00
2023-05-21T04:16:08.691Z,15.90
2023-05-21T04:18:35.680Z,16.00
2023-05-21T04:21:02.506Z,15.90
2023-05-21T04:23:31.771Z,16.00
2023-05-21T04:25:58.461Z,16.00
2023-05-21T04:28:28.621Z,16.00
2023-05-21T04:30:56.491Z,15.90
2023-05-21T04:33:24.467Z,15.80
2023-05-21T04:35:51.871Z,15.80
2023-05-21T04:38:20.677Z,15.90
2023-05-21T04:40:52.288Z,15.90
2023-05-21T04:43:25.965Z,16.00
2023-05-21T04:45:54.797Z,16.00
2023-05-21T04:48:26.808Z,16.00
2023-05-21T04:50:54.074Z,16.00
2023-05-21T04:53:20.892Z,15.90
2023-05-21T04:55:48.008Z,16.00
2023-05-21T04:58:17.679Z,16.10
2023-05-21T05:00:46.901Z,16.10
2023-05-21T05:03:14.596Z,16.10
2023-05-21T05:05:41.937Z,16.00
2023-05-21T05:08:08.718Z,16.00
2023-05-21T05:10:36.182Z,16.00
2023-05-21T05:13:02.964Z,16.00
2023-05-21T05:15:29.798Z,16.00
2023-05-21T05:17:56.668Z,15.90
2023-05-21T05:20:23.522Z,15.80
2023-05-21T05:22:50.253Z,15.80
2023-05-21T05:25:16.959Z,15.80
2023-05-21T05:27:43.935Z,15.90
2023-05-21T05:30:11.224Z,15.90
2023-05-21T05:32:38.069Z,15.70
2023-05-21T05:35:05.442Z,15.70
2023-05-21T05:37:33.197Z,15.80
2023-05-21T05:39:59.923Z,15.80
2023-05-21T05:42:26.721Z,15.90
2023-05-21T05:44:53.437Z,15.90
2023-05-21T05:47:20.150Z,16.00
2023-05-21T05:49:46.834Z,16.00
2023-05-21T05:52:13.615Z,16.10
2023-05-21T05:54:40.486Z,16.10
2023-05-21T05:57:07.156Z,16.20
2023-05-21T05:59:33.918Z,16.30
2023-05-21T06:02:01.402Z,16.50
2023-05-21T06:04:29.934Z,16.60
2023-05-21T06:06:57.669Z,16.80
2023-05-21T06:09:24.759Z,16.90
2023-05-21T06:11:51.543Z,17.10
2023-05-21T06:14:18.235Z,17.10
2023-05-21T06:16:47.584Z,17.10
2023-05-21T06:19:14.550Z,17.10
2023-05-21T06:21:41.311Z,17.20
2023-05-21T06:24:08.026Z,17.20
2023-05-21T06:26:34.932Z,17.20
2023-05-21T06:29:02.524Z,17.40
2023-05-21T06:31:29.335Z,17.40
2023-05-21T06:34:01.347Z,17.60
2023-05-21T06:36:30.155Z,17.70
2023-05-21T06:38:57.229Z,17.60
2023-05-21T06:41:24.318Z,17.70
2023-05-21T06:43:51.394Z,17.80
2023-05-21T06:46:18.243Z,17.90
2023-05-21T06:48:45.971Z,18.00
2023-05-21T06:51:12.925Z,18.00
2023-05-21T06:53:39.783Z,18.10
2023-05-21T06:56:06.879Z,18.20
2023-05-21T06:58:33.662Z,18.10
2023-05-21T07:01:01.384Z,18.30
2023-05-21T07:03:28.421Z,18.30
2023-05-21T07:05:57.658Z,18.30
2023-05-21T07:08:24.499Z,18.50
2023-05-21T07:10:51.375Z,18.60
2023-05-21T07:13:18.080Z,18.70
2023-05-21T07:15:44.815Z,18.90
2023-05-21T07:18:12.020Z,19.10
2023-05-21T07:20:38.928Z,19.20
2023-05-21T07:23:05.856Z,19.40
2023-05-21T07:25:32.643Z,19.70
2023-05-21T07:27:59.351Z,19.70
2023-05-21T07:30:26.139Z,19.80
2023-05-21T07:32:52.921Z,19.90
2023-05-21T07:35:19.933Z,20.10
2023-05-21T07:37:47.778Z,20.20
2023-05-21T07:40:14.633Z,20.20
2023-05-21T07:42:41.449Z,20.50
2023-05-21T07:45:08.460Z,20.60
2023-05-21T07:47:35.164Z,21.00
2023-05-21T07:50:01.953Z,21.10
2023-05-21T07:52:28.680Z,21.10
2023-05-21T07:54:55.539Z,21.00
2023-05-21T07:57:23.376Z,21.20
2023-05-21T07:59:50.048Z,21.40
2023-05-21T08:02:17.026Z,21.30
2023-05-21T08:04:44.432Z,21.70
2023-05-21T08:07:12.765Z,21.70
2023-05-21T08:09:39.451Z,21.80
2023-05-21T08:12:06.755Z,22.10
2023-05-21T08:14:33.441Z,22.30
2023-05-21T08:17:00.113Z,22.10
2023-05-21T08:19:26.855Z,22.10
2023-05-21T08:21:54.341Z,22.10
2023-05-21T08:24:21.092Z,22.40
2023-05-21T08:26:49.541Z,22.40
2023-05-21T08:29:16.333Z,22.10
2023-05-21T08:31:43.090Z,22.20
2023-05-21T08:34:09.982Z,22.60
2023-05-21T08:36:37.640Z,22.40
2023-05-21T08:39:04.563Z,22.50
2023-05-21T08:41:34.592Z,22.70
2023-05-21T08:44:02.416Z,22.90
2023-05-21T08:46:33.784Z,22.90
2023-05-21T08:49:02.957Z,22.60
2023-05-21T08:51:31.043Z,22.40
2023-05-21T08:53:59.675Z,22.50
2023-05-21T08:56:27.235Z,22.50
2023-05-21T08:58:54.187Z,22.30
2023-05-21T09:01:24.170Z,22.30
2023-05-21T09:04:04.890Z,22.30
2023-05-21T09:06:40.644Z,22.10
2023-05-21T09:09:17.588Z,22.30
2023-05-21T09:11:46.368Z,22.20
2023-05-21T09:14:14.682Z,22.30
2023-05-21T09:16:44.399Z,22.30
2023-05-21T09:19:11.184Z,22.00
2023-05-21T09:21:39.624Z,22.10
2023-05-21T09:24:09.235Z,22.50
2023-05-21T09:26:36.322Z,22.40
2023-05-21T09:29:03.268Z,22.60
2023-05-21T09:31:30.146Z,22.70
2023-05-21T09:33:57.038Z,22.60
2023-05-21T09:36:24.632Z,22.70
2023-05-21T09:38:52.410Z,22.90
2023-05-21T09:41:32.102Z,23.20
2023-05-21T09:44:02.778Z,23.60
2023-05-21T09:46:39.489Z,23.70
2023-05-21T09:49:06.392Z,23.40
2023-05-21T09:51:33.486Z,23.40
2023-05-21T09:54:01.102Z,23.70
2023-05-21T09:56:32.299Z,23.80
2023-05-21T09:59:04.485Z,24.20
2023-05-21T10:01:33.905Z,24.30
2023-05-21T10:04:04.585Z,24.30
2023-05-21T10:06:34.782Z,24.70
2023-05-21T10:09:07.011Z,24.80
2023-05-21T10:11:36.468Z,24.50
2023-05-21T10:14:16.676Z,24.30
2023-05-21T10:16:44.967Z,24.00
2023-05-21T10:19:13.054Z,24.30
2023-05-21T10:21:40.957Z,24.50
2023-05-21T10:24:09.295Z,24.60
2023-05-21T10:26:36.700Z,24.70
2023-05-21T10:29:03.765Z,24.60
2023-05-21T10:31:31.792Z,24.70
2023-05-21T10:34:00.347Z,24.70
2023-05-21T10:36:33.430Z,24.70
2023-05-21T10:39:01.895Z,24.70
2023-05-21T10:41:35.840Z,25.00
2023-05-21T10:44:24.941Z,25.30
2023-05-21T10:47:00.542Z,25.30
2023-05-21T10:49:48.484Z,25.40
2023-05-21T10:52:36.833Z,25.40
2023-05-21T10:55:23.328Z,25.30
2023-05-21T10:58:06.522Z,25.00
2023-05-21T11:00:33.616Z,25.10
2023-05-21T11:03:02.556Z,25.00
2023-05-21T11:05:52.360Z,25.00
2023-05-21T11:08:26.281Z,24.80
2023-05-21T11:10:58.139Z,24.80
2023-05-21T11:13:44.537Z,25.10
2023-05-21T11:16:15.756Z,25.30
2023-05-21T11:18:42.413Z,25.20
2023-05-21T11:21:17.218Z,25.20
2023-05-21T11:24:02.200Z,25.00
2023-05-21T11:26:50.361Z,25.00
2023-05-21T11:29:17.815Z,24.90
2023-05-21T11:31:58.744Z,24.90
2023-05-21T11:34:28.945Z,25.00
2023-05-21T11:37:17.434Z,25.30
2023-05-21T11:39:48.316Z,25.30
2023-05-21T11:42:29.023Z,25.20
2023-05-21T11:45:00.924Z,25.10
2023-05-21T11:47:28.895Z,25.00
2023-05-21T11:49:57.685Z,25.30
2023-05-21T11:52:25.236Z,25.10
2023-05-21T11:54:57.125Z,25.30
2023-05-21T11:57:31.102Z,25.50
2023-05-21T11:59:59.327Z,25.60
2023-05-21T12:02:31.218Z,25.60
2023-05-21T12:05:00.980Z,25.40
2023-05-21T12:07:34.131Z,25.50
2023-05-21T12:10:00.956Z,25.50
2023-05-21T12:12:38.508Z,25.30
2023-05-21T12:15:12.748Z,25.30
2023-05-21T12:17:39.765Z,25.20
2023-05-21T12:20:08.544Z,25.30
2023-05-21T12:22:35.561Z,25.60
2023-05-21T12:25:04.029Z,25.60
2023-05-21T12:27:31.921Z,25.60
2023-05-21T12:29:59.609Z,25.40
2023-05-21T12:32:28.196Z,25.60
2023-05-21T12:34:56.250Z,25.70
2023-05-21T12:37:24.085Z,25.70
2023-05-21T12:39:55.665Z,25.60
2023-05-21T12:42:30.676Z,25.70
2023-05-21T12:44:58.157Z,25.70
2023-05-21T12:47:26.831Z,25.60
2023-05-21T12:50:04.180Z,25.50
2023-05-21T12:52:31.081Z,25.50
2023-05-21T12:54:58.530Z,25.80
2023-05-21T12:57:35.768Z,25.70
2023-05-21T13:00:06.516Z,25.40
2023-05-21T13:02:35.052Z,25.50
2023-05-21T13:05:04.478Z,25.50
2023-05-21T13:07:33.365Z,25.50
2023-05-21T13:10:01.090Z,25.60
2023-05-21T13:12:30.695Z,25.80
2023-05-21T13:14:59.368Z,25.70
2023-05-21T13:17:27.489Z,25.70
2023-05-21T13:20:13.258Z,25.90
2023-05-21T13:22:48.137Z,26.10
2023-05-21T13:25:24.545Z,26.00
2023-05-21T13:27:53.066Z,25.70
2023-05-21T13:30:20.865Z,26.00
2023-05-21T13:32:48.145Z,26.20
2023-05-21T13:35:16.592Z,26.30
2023-05-21T13:37:44.104Z,26.00
2023-05-21T13:40:16.525Z,25.70
2023-05-21T13:42:48.286Z,25.90
2023-05-21T13:45:19.940Z,26.10
2023-05-21T13:47:47.928Z,26.10
2023-05-21T13:50:15.303Z,26.00
2023-05-21T13:52:45.394Z,26.10
2023-05-21T13:55:16.204Z,26.20
2023-05-21T13:57:43.735Z,26.00
2023-05-21T14:00:14.042Z,25.70
2023-05-21T14:02:43.441Z,25.80
2023-05-21T14:05:12.757Z,25.70
2023-05-21T14:07:40.072Z,25.80
2023-05-21T14:10:07.354Z,26.00
2023-05-21T14:12:34.731Z,26.00
2023-05-21T14:15:01.465Z,26.00
2023-05-21T14:17:28.417Z,25.80
2023-05-21T14:19:55.923Z,26.00
2023-05-21T14:22:23.075Z,26.10
2023-05-21T14:24:49.997Z,26.20
2023-05-21T14:27:16.765Z,26.40
2023-05-21T14:29:43.568Z,26.30
2023-05-21T14:32:10.332Z,26.00
2023-05-21T14:34:38.542Z,26.00
2023-05-21T14:37:05.613Z,25.80
2023-05-21T14:39:32.409Z,26.00
2023-05-21T14:42:00.955Z,26.00
2023-05-21T14:44:27.716Z,26.10
2023-05-21T14:46:54.593Z,26.10
2023-05-21T14:49:21.819Z,26.10
2023-05-21T14:51:48.726Z,26.10
2023-05-21T14:54:15.572Z,26.00
2023-05-21T14:56:42.435Z,26.00
2023-05-21T14:59:11.341Z,26.10
2023-05-21T15:01:38.828Z,26.10
2023-05-21T15:04:07.555Z,26.00
2023-05-21T15:06:35.015Z,26.00
2023-05-21T15:09:01.795Z,26.00
2023-05-21T15:11:31.145Z,25.80
2023-05-21T15:13:57.822Z,25.80
2023-05-21T15:16:24.686Z,26.00
2023-05-21T15:18:51.536Z,25.90
2023-05-21T15:21:18.800Z,26.00
2023-05-21T15:23:45.647Z,26.10
2023-05-21T15:26:12.359Z,26.20
2023-05-21T15:28:39.146Z,26.20
2023-05-21T15:31:06.057Z,26.20
2023-05-21T15:33:32.937Z,26.20
2023-05-21T15:35:59.685Z,26.10
2023-05-21T15:38:26.531Z,26.00
2023-05-21T15:40:53.629Z,26.00
2023-05-21T15:43:20.336Z,26.00
2023-05-21T15:45:47.099Z,26.20
2023-05-21T15:48:14.709Z,26.20
2023-05-21T15:50:41.630Z,26.10
2023-05-21T15:53:10.991Z,26.20
2023-05-21T15:55:38.181Z,26.30
2023-05-21T15:58:05.219Z,26.30
2023-05-21T16:00:32.190Z,26.10
2023-05-21T16:02:59.001Z,26.00
2023-05-21T16:05:26.609Z,26.10
2023-05-21T16:07:53.469Z,26.20
2023-05-21T16:10:21.133Z,26.10
2023-05-21T16:12:47.823Z,26.10
2023-05-21T16:15:14.670Z,26.10
2023-05-21T16:17:41.419Z,26.10
2023-05-21T16:20:08.414Z,26.10
2023-05-21T16:22:35.305Z,26.00
2023-05-21T16:25:02.703Z,26.10
2023-05-21T16:27:29.526Z,26.00
2023-05-21T16:29:56.474Z,25.90
2023-05-21T16:32:23.479Z,26.00
2023-05-21T16:34:50.980Z,26.00
2023-05-21T16:37:17.702Z,25.90
2023-05-21T16:39:44.510Z,26.00
2023-05-21T16:42:11.265Z,26.00
2023-05-21T16:44:39.246Z,26.10
2023-05-21T16:47:06.460Z,26.00
2023-05-21T16:49:33.283Z,26.00
2023-05-21T16:52:01.525Z,25.80
2023-05-21T16:54:28.385Z,25.80
2023-05-21T16:56:55.705Z,25.70
2023-05-21T16:59:22.528Z,25.70
2023-05-21T17:01:51.012Z,25.80
2023-05-21T17:04:17.858Z,25.80
2023-05-21T17:06:44.687Z,25.80
2023-05-21T17:09:11.495Z,25.80
2023-05-21T17:11:38.314Z,25.70
2023-05-21T17:14:05.107Z,25.80
2023-05-21T17:16:31.975Z,25.80
2023-05-21T17:18:58.808Z,25.80
2023-05-21T17:21:26.870Z,25.60
2023-05-21T17:23:53.602Z,25.70
2023-05-21T17:26:21.723Z,25.60
2023-05-21T17:28:48.471Z,25.70
2023-05-21T17:31:15.372Z,25.70
2023-05-21T17:33:42.127Z,25.60
2023-05-21T17:36:08.897Z,25.60
2023-05-21T17:38:35.748Z,25.50
2023-05-21T17:41:02.690Z,25.50
2023-05-21T17:43:31.868Z,25.50
2023-05-21T17:45:58.832Z,25.50
2023-05-21T17:48:26.166Z,25.40
2023-05-21T17:50:55.662Z,25.40
2023-05-21T17:53:22.787Z,25.30
2023-05-21T17:55:49.550Z,25.20
2023-05-21T17:58:16.374Z,25.30
2023-05-21T18:00:43.272Z,25.10
2023-05-21T18:03:10.127Z,25.00
2023-05-21T18:05:37.232Z,25.10
2023-05-21T18:08:04.744Z,25.20
2023-05-21T18:10:31.491Z,25.30
2023-05-21T18:12:58.424Z,25.30
2023-05-21T18:15:25.412Z,25.20
2023-05-21T18:17:52.187Z,25.10
2023-05-21T18:20:19.083Z,25.00
2023-05-21T18:22:45.909Z,24.90
2023-05-21T18:25:12.779Z,24.90
2023-05-21T18:27:39.607Z,24.80
2023-05-21T18:30:07.151Z,24.70
2023-05-21T18:32:34.357Z,24.50
2023-05-21T18:35:01.335Z,24.40
2023-05-21T18:37:29.150Z,24.40
2023-05-21T18:39:55.952Z,24.40
2023-05-21T18:42:22.651Z,24.30
2023-05-21T18:44:51.493Z,24.30
2023-05-21T18:47:18.340Z,24.30
2023-05-21T18:49:45.066Z,24.30
2023-05-21T18:52:11.837Z,24.20
2023-05-21T18:54:38.614Z,24.20
2023-05-21T18:57:05.606Z,24.20
2023-05-21T18:59:32.640Z,24.10
2023-05-21T19:01:59.481Z,24.10
2023-05-21T19:04:26.256Z,24.10
2023-05-21T19:06:53.065Z,23.80
2023-05-21T19:09:19.865Z,23.70
2023-05-21T19:11:46.652Z,23.70
2023-05-21T19:14:13.439Z,23.50
2023-05-21T19:16:40.347Z,23.40
2023-05-21T19:19:07.445Z,23.40
2023-05-21T19:21:34.401Z,23.40
2023-05-21T19:24:02.413Z,23.30
2023-05-21T19:26:31.073Z,23.10
2023-05-21T19:28:57.865Z,23.00
2023-05-21T19:31:28.575Z,23.00
2023-05-21T19:33:55.503Z,22.90
2023-05-21T19:36:22.454Z,22.80
2023-05-21T19:38:50.511Z,22.70
2023-05-21T19:41:18.191Z,22.60
2023-05-21T19:43:45.943Z,22.60
2023-05-21T19:46:13.268Z,22.60
2023-05-21T19:48:40.291Z,22.60
2023-05-21T19:51:07.147Z,22.60
2023-05-21T19:53:34.792Z,22.50
2023-05-21T19:56:01.579Z,22.40
2023-05-21T19:58:30.307Z,22.30
2023-05-21T20:00:59.964Z,22.30
2023-05-21T20:03:28.029Z,22.20
2023-05-21T20:05:55.045Z,22.10
2023-05-21T20:08:25.112Z,22.10
2023-05-21T20:10:52.225Z,22.20
2023-05-21T20:13:19.530Z,22.10
2023-05-21T20:15:47.881Z,22.00
2023-05-21T20:18:15.589Z,21.90
2023-05-21T20:20:42.974Z,21.80
2023-05-21T20:23:09.810Z,21.80
2023-05-21T20:25:36.656Z,21.80
2023-05-21T20:28:05.286Z,21.70
2023-05-21T20:30:34.185Z,21.50
2023-05-21T20:33:04.213Z,21.50
2023-05-21T20:35:31.073Z,21.50
2023-05-21T20:37:57.837Z,21.50
2023-05-21T20:40:24.812Z,21.40
2023-05-21T20:42:53.532Z,21.40
2023-05-21T20:45:21.182Z,21.30
2023-05-21T20:47:49.929Z,21.30
2023-05-21T20:50:17.818Z,21.40
2023-05-21T20:52:47.165Z,21.30
2023-05-21T20:55:14.773Z,21.30
2023-05-21T20:57:42.130Z,21.30
2023-05-21T21:00:11.754Z,21.00
2023-05-21T21:02:38.889Z,20.90
2023-05-21T21:05:06.390Z,20.90
2023-05-21T21:07:34.088Z,21.00
2023-05-21T21:10:01.421Z,20.90
2023-05-21T21:12:28.464Z,20.80
2023-05-21T21:14:55.383Z,20.70
2023-05-21T21:17:22.444Z,20.70
2023-05-21T21:19:49.242Z,20.70
2023-05-21T21:22:17.187Z,20.70
2023-05-21T21:24:44.048Z,20.70
2023-05-21T21:27:10.872Z,20.20
2023-05-21T21:29:37.684Z,20.10
2023-05-21T21:32:04.918Z,20.10
2023-05-21T21:34:31.688Z,20.10
2023-05-21T21:36:58.480Z,20.10
2023-05-21T21:39:26.182Z,20.20
2023-05-21T21:41:53.024Z,20.00
2023-05-21T21:44:22.588Z,20.00
2023-05-21T21:46:49.470Z,20.00
2023-05-21T21:49:19.046Z,19.80
2023-05-21T21:51:45.990Z,19.70
2023-05-21T21:54:12.707Z,19.50
2023-05-21T21:56:39.601Z,19.50
2023-05-21T21:59:06.423Z,19.60
2023-05-21T22:01:34.752Z,19.60
2023-05-21T22:04:01.562Z,19.50
2023-05-21T22:06:28.562Z,19.50
2023-05-21T22:08:55.513Z,19.50
2023-05-21T22:11:22.768Z,19.40
2023-05-21T22:13:49.581Z,19.30
2023-05-21T22:16:16.434Z,19.30
2023-05-21T22:18:43.578Z,19.10
2023-05-21T22:21:14.322Z,19.00
2023-05-21T22:23:41.412Z,19.00
2023-05-21T22:26:09.115Z,19.00
2023-05-21T22:28:35.943Z,18.90
2023-05-21T22:31:02.933Z,18.80
2023-05-21T22:33:29.852Z,18.80
2023-05-21T22:35:57.020Z,18.90
2023-05-21T22:38:24.657Z,19.00
2023-05-21T22:40:51.515Z,18.80
2023-05-21T22:43:18.349Z,18.60
2023-05-21T22:45:45.111Z,18.60
2023-05-21T22:48:11.801Z,18.60
2023-05-21T22:50:39.035Z,18.50
2023-05-21T22:53:06.853Z,18.50
2023-05-21T22:55:33.627Z,18.60
2023-05-21T22:58:00.484Z,18.70
2023-05-21T23:00:27.437Z,18.60
2023-05-21T23:02:56.363Z,18.50
2023-05-21T23:05:23.214Z,18.50
2023-05-21T23:07:50.008Z,18.40
2023-05-21T23:10:16.798Z,18.50
2023-05-21T23:12:43.572Z,18.50
2023-05-21T23:15:10.686Z,18.40
2023-05-21T23:17:37.939Z,18.40
2023-05-21T23:20:08.904Z,18.40
2023-05-21T23:22:36.726Z,18.50
2023-05-21T23:25:03.986Z,18.50
2023-05-21T23:27:30.676Z,18.30
2023-05-21T23:29:57.373Z,18.30
2023-05-21T23:32:24.265Z,18.40
2023-05-21T23:34:51.058Z,18.20
2023-05-21T23:37:17.797Z,18.20
2023-05-21T23:39:48.096Z,18.00
2023-05-21T23:42:17.937Z,18.10
2023-05-21T23:44:44.690Z,18.10
2023-05-21T23:47:11.432Z,18.10
2023-05-21T23:49:38.779Z,17.90
2023-05-21T23:52:06.119Z,17.90
2023-05-21T23:54:32.801Z,17.70
2023-05-21T23:56:59.523Z,17.50
2023-05-21T23:59:28.173Z,17.40
